Time;durP1;ratioP1;P1;durP2;ratioP2;P2;SDS_P1;SDS_P2;PMS_P1;PMS_P2;Temp;Humidity;BMP_temperature;BMP_pressure;BME280_temperature;BME280_humidity;BME280_pressure;Samples;Min_cycle;Max_cycle;Signal;HPM_P1;HPM_P2
2022/11/07 00:02:04;;;;;;;3.88;2.45;;;;;;;11.61;78.22;100667.28;4785632;29;20364;-90
2022/11/07 00:04:30;;;;;;;5.15;2.42;;;;;;;11.67;77.96;100674.94;4774897;30;20130;-88
2022/11/07 00:06:56;;;;;;;4.47;2.47;;;;;;;11.74;77.50;100669.25;4799798;29;20042;-88
2022/11/07 00:09:21;;;;;;;6.68;2.80;;;;;;;11.75;77.68;100676.31;4783724;29;20030;-88
2022/11/07 00:11:47;;;;;;;4.55;2.85;;;;;;;11.66;77.42;100666.16;4793634;29;20054;-89
2022/11/07 00:14:14;;;;;;;3.40;2.30;;;;;;;11.68;77.71;100672.22;4794352;29;20035;-89
2022/11/07 00:16:40;;;;;;;8.40;3.30;;;;;;;11.68;77.90;100666.06;4800093;29;20035;-88
2022/11/07 00:19:06;;;;;;;4.30;2.83;;;;;;;11.66;78.06;100682.03;4783622;29;20042;-89
2022/11/07 00:21:31;;;;;;;7.47;3.03;;;;;;;11.65;77.98;100684.72;4802303;29;20050;-89
2022/11/07 00:23:56;;;;;;;4.43;2.50;;;;;;;11.49;78.28;100684.59;4794656;29;20119;-88
2022/11/07 00:26:22;;;;;;;3.88;2.45;;;;;;;11.45;78.40;100675.09;4800242;29;20444;-89
2022/11/07 00:28:47;;;;;;;9.35;3.17;;;;;;;11.41;78.60;100684.94;4799039;29;20109;-88
2022/11/07 00:31:14;;;;;;;7.65;2.58;;;;;;;11.51;78.30;100693.31;4795025;29;20027;-89
2022/11/07 00:33:40;;;;;;;5.95;3.10;;;;;;;11.46;78.29;100693.53;4794552;29;20480;-89
2022/11/07 00:36:07;;;;;;;7.55;3.08;;;;;;;11.39;78.84;100693.91;4783355;30;20385;-88
2022/11/07 00:38:32;;;;;;;9.95;3.35;;;;;;;11.31;78.84;100688.09;4775796;29;20135;-89
2022/11/07 00:41:06;;;;;;;6.38;2.83;;;;;;;11.29;79.15;100676.72;4801090;29;20114;-89
2022/11/07 00:43:32;;;;;;;8.18;2.97;;;;;;;11.29;78.69;100682.88;4777670;29;20027;-89
2022/11/07 00:46:01;;;;;;;7.05;3.47;;;;;;;11.19;79.66;100686.84;4799158;29;20046;-89
2022/11/07 00:48:27;;;;;;;4.88;2.35;;;;;;;11.36;78.80;100686.09;4795467;29;20080;-88
2022/11/07 00:50:52;;;;;;;12.77;3.10;;;;;;;11.27;79.17;100684.72;4801701;29;20034;-88
2022/11/07 00:53:17;;;;;;;6.03;2.88;;;;;;;11.32;79.36;100697.75;4793373;29;20104;-88
2022/11/07 00:55:43;;;;;;;7.00;2.55;;;;;;;11.27;79.23;100687.38;4798815;29;20039;-89
2022/11/07 00:58:09;;;;;;;7.32;2.47;;;;;;;11.32;79.13;100697.75;4799873;29;20042;-89
2022/11/07 01:00:34;;;;;;;4.93;2.22;;;;;;;11.24;79.02;100691.03;4797864;29;20452;-88
2022/11/07 01:05:54;;;;;;;6.88;2.15;;;;;;;11.32;79.34;100706.53;4796584;29;20307;-88
2022/11/07 01:08:19;;;;;;;3.97;2.75;;;;;;;11.26;79.20;100698.88;4792909;29;20027;-88
2022/11/07 01:10:44;;;;;;;4.97;2.10;;;;;;;11.21;79.11;100685.88;4779103;29;20039;-88
2022/11/07 01:13:10;;;;;;;9.38;3.30;;;;;;;11.21;80.11;100703.53;4797247;29;20472;-88
2022/11/07 01:15:39;;;;;;;10.98;2.88;;;;;;;11.28;80.10;100698.81;4795160;29;20189;-88
2022/11/07 01:18:04;;;;;;;5.28;2.92;;;;;;;11.31;79.81;100704.81;4798974;29;20472;-88
2022/11/07 01:20:29;;;;;;;8.68;2.72;;;;;;;11.32;79.78;100710.97;4796191;29;20154;-88
2022/11/07 01:22:55;;;;;;;4.10;2.38;;;;;;;11.37;79.74;100719.56;4800227;29;20429;-88
2022/11/07 01:25:20;;;;;;;6.20;2.95;;;;;;;11.37;79.70;100719.56;4780354;29;20167;-88
2022/11/07 01:27:45;;;;;;;5.63;2.40;;;;;;;11.34;79.35;100727.66;4792910;29;20030;-88
2022/11/07 01:30:11;;;;;;;8.82;2.78;;;;;;;11.31;79.62;100725.16;4800119;29;20091;-88
2022/11/07 01:32:36;;;;;;;10.27;2.92;;;;;;;11.36;79.61;100746.97;4791780;29;20042;-88
2022/11/07 01:35:01;;;;;;;6.97;2.33;;;;;;;11.28;79.82;100725.28;4779172;30;20035;-88
2022/11/07 01:37:26;;;;;;;7.90;2.40;;;;;;;11.33;80.06;100732.09;4766947;30;20063;-88
2022/11/07 01:39:52;;;;;;;3.95;2.25;;;;;;;11.33;79.41;100736.50;4787579;29;20030;-88
2022/11/07 01:42:17;;;;;;;5.15;2.60;;;;;;;11.30;79.54;100731.38;4780671;29;20517;-88
2022/11/07 01:44:52;;;;;;;5.75;2.53;;;;;;;11.43;79.28;100744.00;4795005;29;20035;-88
2022/11/07 01:47:18;;;;;;;7.97;2.80;;;;;;;11.42;79.78;100730.81;4798615;29;20484;-88
2022/11/07 01:49:43;;;;;;;6.85;2.60;;;;;;;11.36;79.83;100731.09;4771521;29;20024;-88
2022/11/07 01:52:30;;;;;;;9.43;3.35;;;;;;;11.49;79.63;100734.91;4777063;29;20050;-88
2022/11/07 01:55:03;;;;;;;7.28;3.00;;;;;;;11.36;79.78;100717.84;4792071;29;20031;-88
2022/11/07 01:57:33;;;;;;;6.13;2.35;;;;;;;11.38;79.88;100724.81;4795965;29;20582;-88
2022/11/07 02:00:02;;;;;;;7.45;2.50;;;;;;;11.47;79.75;100744.69;4783618;29;20037;-88
2022/11/07 02:02:28;;;;;;;7.40;3.00;;;;;;;11.41;79.87;100723.78;4803908;29;20496;-88
2022/11/07 02:04:56;;;;;;;7.32;2.60;;;;;;;11.39;80.01;100742.41;4775879;29;20122;-88
2022/11/07 02:07:22;;;;;;;7.30;2.88;;;;;;;11.38;80.30;100748.63;4778550;29;20480;-88
2022/11/07 02:09:51;;;;;;;11.00;2.47;;;;;;;11.38;80.12;100739.84;4781527;29;20500;-88
2022/11/07 02:12:17;;;;;;;8.30;3.45;;;;;;;11.45;80.78;100744.75;4779465;29;20054;-88
2022/11/07 02:14:43;;;;;;;9.27;2.80;;;;;;;11.45;80.27;100755.34;4792143;29;20480;-88
2022/11/07 02:17:10;;;;;;;9.45;2.90;;;;;;;11.42;80.11;100736.97;4804406;29;20107;-88
2022/11/07 02:19:49;;;;;;;12.50;3.03;;;;;;;11.59;80.18;100748.56;4774925;29;20562;-88
2022/11/07 02:22:38;;;;;;;7.07;3.03;;;;;;;11.57;80.04;100743.38;4787414;29;20046;-88
2022/11/07 02:25:07;;;;;;;6.10;2.78;;;;;;;11.53;80.12;100739.13;4784010;29;20491;-88
2022/11/07 02:27:33;;;;;;;7.68;2.63;;;;;;;11.45;80.12;100744.75;4791528;29;20107;-88
2022/11/07 02:30:20;;;;;;;8.15;2.92;;;;;;;11.56;80.57;100741.63;4767128;29;20488;-88
2022/11/07 02:32:46;;;;;;;6.00;2.88;;;;;;;11.59;79.77;100746.78;4800504;29;20484;-88
2022/11/07 02:35:34;;;;;;;10.43;2.85;;;;;;;11.61;79.87;100747.59;4793003;29;20035;-88
2022/11/07 02:38:01;;;;;;;6.57;2.67;;;;;;;11.49;80.27;100741.06;4766329;29;20031;-88
2022/11/07 02:40:29;;;;;;;7.78;2.83;;;;;;;11.51;80.34;100754.22;4792119;29;20472;-88
2022/11/07 02:42:55;;;;;;;4.78;2.40;;;;;;;11.53;80.23;100747.06;4793758;29;20494;-88
2022/11/07 02:45:28;;;;;;;5.25;2.25;;;;;;;11.45;80.21;100728.03;4775317;29;20038;-88
2022/11/07 02:47:54;;;;;;;12.18;2.80;;;;;;;11.54;80.43;100738.19;4794226;29;20472;-88
2022/11/07 02:50:20;;;;;;;9.13;2.88;;;;;;;11.55;80.18;100731.09;4782591;29;20045;-88
2022/11/07 02:52:45;;;;;;;9.23;2.55;;;;;;;11.44;80.54;100724.53;4776493;29;20579;-88
2022/11/07 02:55:12;;;;;;;4.65;2.42;;;;;;;11.55;80.25;100736.41;4797520;29;20039;-89
2022/11/07 02:57:38;;;;;;;7.47;2.85;;;;;;;11.57;80.34;100738.06;4794229;29;20065;-88
2022/11/07 03:00:05;;;;;;;11.68;3.10;;;;;;;11.60;80.68;100731.75;4790939;29;20065;-87
2022/11/07 03:02:31;;;;;;;6.13;2.35;;;;;;;11.49;80.40;100721.66;4801913;29;20030;-88
2022/11/07 03:04:57;;;;;;;7.13;3.00;;;;;;;11.53;80.47;100736.47;4774989;29;20035;-88
2022/11/07 03:07:22;;;;;;;8.80;2.72;;;;;;;11.53;80.78;100725.91;4794391;29;20164;-88
2022/11/07 03:09:47;;;;;;;6.95;2.88;;;;;;;11.45;80.84;100715.66;4799168;29;20118;-88
2022/11/07 03:12:12;;;;;;;7.63;2.78;;;;;;;11.50;81.01;100720.72;4793281;29;20041;-88
2022/11/07 03:14:38;;;;;;;8.02;2.88;;;;;;;11.49;80.93;100727.81;4774498;29;20107;-88
2022/11/07 03:17:03;;;;;;;6.97;3.38;;;;;;;11.55;80.59;100721.38;4794944;29;20038;-88
2022/11/07 03:19:28;;;;;;;11.57;2.90;;;;;;;11.56;80.94;100744.25;4796625;29;20037;-88
2022/11/07 03:21:53;;;;;;;8.77;2.75;;;;;;;11.48;80.74;100726.09;4792993;29;20055;-88
2022/11/07 03:24:19;;;;;;;7.00;2.30;;;;;;;11.56;80.86;100733.69;4798988;29;20026;-88
2022/11/07 03:26:44;;;;;;;8.60;2.20;;;;;;;11.55;81.00;100739.06;4795814;29;20023;-88
2022/11/07 03:29:09;;;;;;;7.20;3.17;;;;;;;11.53;80.57;100728.53;4780229;29;20034;-88
2022/11/07 03:31:35;;;;;;;10.98;3.03;;;;;;;11.50;80.83;100732.19;4799151;29;20079;-88
2022/11/07 03:34:01;;;;;;;9.85;3.25;;;;;;;11.51;80.61;100719.78;4774738;29;20092;-88
2022/11/07 03:36:26;;;;;;;7.65;2.63;;;;;;;11.56;80.89;100730.16;4779399;30;20112;-88
2022/11/07 03:38:51;;;;;;;11.68;3.40;;;;;;;11.56;80.92;100730.16;4774805;29;20542;-88
2022/11/07 03:41:16;;;;;;;6.75;2.30;;;;;;;11.66;80.41;100735.00;4794967;29;20031;-88
2022/11/07 03:43:44;;;;;;;14.43;2.72;;;;;;;11.60;80.46;100729.09;4797164;29;20042;-88
2022/11/07 03:46:10;;;;;;;9.45;2.50;;;;;;;11.64;80.24;100730.69;4793470;29;20152;-88
2022/11/07 03:48:36;;;;;;;7.80;2.40;;;;;;;11.78;80.26;100738.00;4788298;29;20400;-88
2022/11/07 03:51:01;;;;;;;13.13;3.33;;;;;;;11.72;79.96;100729.41;4772729;29;20032;-88
2022/11/07 03:53:26;;;;;;;9.90;2.85;;;;;;;11.75;79.77;100731.06;4780357;29;20027;-87
2022/11/07 03:55:53;;;;;;;10.48;4.10;;;;;;;11.73;80.04;100747.00;4791924;29;20099;-88
2022/11/07 03:58:19;;;;;;;7.55;3.20;;;;;;;11.84;79.48;100746.53;4790162;29;20078;-88
2022/11/07 04:00:44;;;;;;;12.00;2.88;;;;;;;11.96;79.28;100747.75;4800780;29;20495;-88
2022/11/07 04:03:09;;;;;;;10.38;2.67;;;;;;;11.92;79.54;100740.88;4786218;29;20045;-88
2022/11/07 04:05:34;;;;;;;9.00;2.40;;;;;;;11.91;78.99;100736.53;4777896;29;20028;-88
2022/11/07 04:08:00;;;;;;;9.05;2.63;;;;;;;11.98;79.11;100737.94;4798283;29;20045;-88
2022/11/07 04:10:25;;;;;;;13.55;2.60;;;;;;;11.90;79.11;100726.88;4794467;29;20484;-88
2022/11/07 04:18:21;;;;;;;6.13;2.25;;;;;;;11.93;78.78;100735.50;4772902;30;20054;-88
2022/11/07 04:20:46;;;;;;;5.28;2.05;;;;;;;12.00;79.13;100744.88;4769557;29;20036;-88
2022/11/07 04:23:11;;;;;;;11.65;2.55;;;;;;;11.92;78.94;100738.22;4796710;29;20039;-88
2022/11/07 04:28:20;;;;;;;6.55;2.28;;;;;;;11.96;78.87;100750.41;4782096;29;20123;-88
2022/11/07 04:30:46;;;;;;;9.60;2.35;;;;;;;11.92;78.84;100739.09;4788567;29;20035;-88
2022/11/07 04:33:11;;;;;;;12.15;2.95;;;;;;;11.89;79.32;100743.66;4792217;29;20031;-88
2022/11/07 04:35:36;;;;;;;14.02;3.20;;;;;;;11.88;79.07;100750.75;4774099;29;20133;-88
2022/11/07 04:38:01;;;;;;;8.52;2.45;;;;;;;11.86;78.94;100741.19;4770188;30;20063;-88
2022/11/07 04:40:28;;;;;;;11.35;2.65;;;;;;;11.80;79.57;100739.66;4792236;29;20031;-88
2022/11/07 04:42:54;;;;;;;8.15;2.80;;;;;;;11.83;78.93;100747.47;4802047;29;20035;-88
2022/11/07 04:45:19;;;;;;;6.70;2.55;;;;;;;11.83;79.06;100751.91;4766929;29;20035;-88
2022/11/07 04:47:45;;;;;;;9.35;2.58;;;;;;;11.81;79.29;100753.75;4775388;29;20431;-88
2022/11/07 04:50:13;;;;;;;9.77;2.17;;;;;;;11.74;79.27;100751.38;4793311;29;20039;-88
2022/11/07 04:52:39;;;;;;;15.68;2.88;;;;;;;11.77;79.20;100744.22;4797620;29;20399;-88
2022/11/07 04:55:06;;;;;;;8.63;1.95;;;;;;;11.87;78.90;100756.13;4803137;29;20087;-88
2022/11/07 04:57:32;;;;;;;14.02;2.65;;;;;;;11.87;79.17;100764.94;4779101;29;20498;-87
2022/11/07 04:59:57;;;;;;;10.23;3.40;;;;;;;11.83;79.23;100733.38;4778343;29;20027;-88
2022/11/07 05:02:26;;;;;;;12.13;2.55;;;;;;;11.88;78.81;100749.91;4805048;29;20430;-88
2022/11/07 05:04:52;;;;;;;10.10;2.25;;;;;;;11.94;78.88;100752.28;4777190;29;20082;-88
2022/11/07 05:07:18;;;;;;;9.82;2.42;;;;;;;12.02;78.69;100758.06;4805733;29;20070;-88
2022/11/07 05:09:43;;;;;;;11.52;2.42;;;;;;;12.02;78.40;100755.41;4774073;29;20092;-87
2022/11/07 05:12:09;;;;;;;16.05;2.42;;;;;;;12.00;78.48;100751.97;4793326;29;20034;-88
2022/11/07 05:14:34;;;;;;;9.27;2.30;;;;;;;11.96;78.34;100751.25;4776521;29;20031;-88
2022/11/07 05:17:02;;;;;;;8.18;2.47;;;;;;;11.95;78.42;100757.50;4797428;29;20063;-88
2022/11/07 05:19:27;;;;;;;11.93;2.72;;;;;;;11.95;78.74;100769.88;4798796;29;20570;-88
2022/11/07 05:23:11;;;;;;;12.13;3.00;;;;;;;11.89;78.79;100764.84;4777499;29;20062;-87
2022/11/07 05:24:38;;;;;;;9.68;2.03;;;;;;;11.89;79.04;100767.50;4780852;29;20370;-88
2022/11/07 05:27:05;;;;;;;8.20;2.30;;;;;;;11.92;78.73;100772.66;4779513;29;20235;-88
2022/11/07 05:29:30;;;;;;;7.63;2.25;;;;;;;11.96;78.05;100771.59;4772252;30;20087;-88
2022/11/07 05:31:56;;;;;;;9.40;3.20;;;;;;;11.91;78.56;100761.22;4778879;29;20036;-88
2022/11/07 05:34:21;;;;;;;10.25;2.83;;;;;;;11.84;78.74;100767.72;4779518;30;20051;-88
2022/11/07 05:36:47;;;;;;;14.32;2.38;;;;;;;11.91;78.75;100770.97;4778971;30;20042;-88
2022/11/07 05:39:12;;;;;;;11.93;2.95;;;;;;;11.92;78.52;100768.22;4771256;29;20023;-88
2022/11/07 05:41:37;;;;;;;4.88;1.80;;;;;;;11.97;78.32;100766.22;4773754;30;20032;-88
2022/11/07 05:44:03;;;;;;;14.15;2.88;;;;;;;11.99;78.50;100759.06;4794381;29;20024;-88
2022/11/07 05:46:28;;;;;;;12.38;3.00;;;;;;;11.96;78.56;100771.59;4778122;30;20031;-88
2022/11/07 05:48:54;;;;;;;10.13;2.97;;;;;;;11.99;78.74;100776.78;4780669;29;20059;-88
2022/11/07 05:51:19;;;;;;;13.82;3.03;;;;;;;11.94;78.51;100776.13;4779424;29;20028;-88
2022/11/07 05:53:44;;;;;;;9.75;2.50;;;;;;;11.99;78.67;100774.13;4784176;29;20027;-88
2022/11/07 05:56:10;;;;;;;12.55;2.58;;;;;;;11.93;78.56;100769.09;4775482;30;20032;-87
2022/11/07 05:58:35;;;;;;;9.88;2.60;;;;;;;11.96;78.36;100768.94;4780210;30;20611;-88
2022/11/07 06:01:02;;;;;;;13.77;2.65;;;;;;;12.04;77.78;100781.84;4778067;30;20057;-88
2022/11/07 06:03:27;;;;;;;11.82;2.60;;;;;;;11.99;78.26;100772.31;4780912;29;20102;-88
2022/11/07 06:05:53;;;;;;;10.23;2.75;;;;;;;12.06;78.10;100777.31;4778601;30;20106;-88
2022/11/07 06:08:18;;;;;;;11.10;2.95;;;;;;;12.08;77.67;100768.38;4774212;29;20433;-88
2022/11/07 06:10:43;;;;;;;12.65;2.58;;;;;;;12.15;77.43;100764.50;4785073;29;20031;-88
2022/11/07 06:13:12;;;;;;;6.88;2.10;;;;;;;12.18;77.14;100774.09;4785721;30;20031;-89
2022/11/07 06:15:38;;;;;;;9.90;2.15;;;;;;;12.14;77.61;100778.69;4775843;29;20493;-88
2022/11/07 06:18:06;;;;;;;8.93;2.28;;;;;;;12.12;77.52;100763.78;4772371;30;20032;-89
2022/11/07 06:20:33;;;;;;;11.68;3.70;;;;;;;12.20;77.40;100772.22;4776482;29;20051;-88
2022/11/07 06:23:02;;;;;;;10.43;2.90;;;;;;;12.13;77.61;100766.38;4785535;30;20042;-88
2022/11/07 06:25:28;;;;;;;11.10;2.75;;;;;;;12.27;77.26;100778.09;4774765;30;20027;-88
2022/11/07 06:28:05;;;;;;;12.45;2.50;;;;;;;12.15;77.91;100776.88;4779949;30;20156;-87
2022/11/07 06:30:31;;;;;;;11.95;2.65;;;;;;;12.11;77.99;100772.66;4778751;29;20114;-88
2022/11/07 06:33:01;;;;;;;8.25;2.05;;;;;;;12.11;78.19;100773.53;4785599;30;20122;-88
2022/11/07 06:35:27;;;;;;;10.13;2.63;;;;;;;12.14;77.61;100783.97;4773911;30;20036;-88
2022/11/07 06:37:52;;;;;;;12.88;3.17;;;;;;;12.14;77.53;100776.03;4772272;30;20040;-88
2022/11/07 06:40:17;;;;;;;9.15;1.88;;;;;;;12.27;77.24;100781.63;4773903;29;20027;-88
2022/11/07 06:42:43;;;;;;;14.02;2.55;;;;;;;12.37;76.80;100789.97;4769363;30;20043;-88
2022/11/07 06:45:10;;;;;;;6.55;2.85;;;;;;;12.33;77.23;100789.25;4773536;30;20039;-88
2022/11/07 06:47:35;;;;;;;9.00;2.05;;;;;;;12.36;77.14;100786.47;4779327;30;20110;-93
2022/11/07 06:50:00;;;;;;;11.50;3.17;;;;;;;12.37;76.95;100779.38;4763566;30;20115;-93
2022/11/07 06:52:26;;;;;;;10.82;2.30;;;;;;;12.36;77.00;100791.78;4769697;29;20527;-94
2022/11/07 06:54:52;;;;;;;8.45;2.15;;;;;;;12.47;76.60;100797.41;4785816;29;20031;-93
2022/11/07 06:57:17;;;;;;;15.77;2.85;;;;;;;12.45;76.98;100787.78;4779490;29;20035;-93
2022/11/07 06:59:42;;;;;;;10.73;2.42;;;;;;;12.44;76.81;100783.44;4779109;30;20030;-93
2022/11/07 07:02:11;;;;;;;13.60;2.92;;;;;;;12.56;76.72;100803.19;4785200;30;20091;-93
2022/11/07 07:04:37;;;;;;;9.00;2.17;;;;;;;12.56;76.66;100805.84;4773544;30;20115;-94
2022/11/07 07:07:02;;;;;;;8.60;2.10;;;;;;;12.77;75.92;100800.31;4763077;30;20552;-94
2022/11/07 07:09:27;;;;;;;9.45;2.28;;;;;;;12.76;75.74;100803.06;4779505;29;20084;-92
2022/11/07 07:11:53;;;;;;;8.88;2.92;;;;;;;12.56;76.39;100800.56;4777714;29;20408;-92
2022/11/07 07:14:18;;;;;;;13.82;2.60;;;;;;;12.57;76.43;100804.91;4768888;30;20031;-92
2022/11/07 07:16:43;;;;;;;9.30;2.50;;;;;;;12.65;76.35;100811.56;4775740;30;20031;-92
2022/11/07 07:19:11;;;;;;;6.93;2.50;;;;;;;12.62;77.02;100811.69;4773443;30;20070;-93
2022/11/07 07:21:36;;;;;;;10.35;2.42;;;;;;;12.64;76.28;100811.66;4784492;30;20086;-92
2022/11/07 07:24:02;;;;;;;14.88;2.95;;;;;;;12.68;76.10;100816.72;4784829;29;20508;-87
2022/11/07 07:26:27;;;;;;;13.05;2.38;;;;;;;12.74;76.17;100834.97;4774320;29;20168;-88
2022/11/07 07:28:52;;;;;;;12.20;2.58;;;;;;;12.66;76.34;100823.03;4772510;30;20043;-88
2022/11/07 07:31:25;;;;;;;7.68;2.10;;;;;;;12.67;76.33;100819.44;4768356;30;20088;-88
2022/11/07 07:33:50;;;;;;;;;;;;;;;12.80;76.01;100835.63;4769282;30;20039;-88
2022/11/07 07:36:16;;;;;;;8.57;2.25;;;;;;;12.86;75.97;100835.28;4778631;30;20287;-88
2022/11/07 07:38:42;;;;;;;11.05;2.20;;;;;;;12.93;75.63;100848.19;4755819;30;20065;-88
2022/11/07 07:41:07;;;;;;;11.10;2.50;;;;;;;12.91;75.72;100826.16;4783821;30;20451;-88
2022/11/07 07:43:33;;;;;;;10.63;2.17;;;;;;;12.88;76.01;100829.00;4767529;30;20548;-88
2022/11/07 07:46:04;;;;;;;7.60;2.25;;;;;;;12.99;75.65;100837.25;4773227;30;20046;-88
2022/11/07 07:48:30;;;;;;;11.65;2.25;;;;;;;12.85;75.96;100828.28;4767007;30;20258;-88
2022/11/07 07:50:56;;;;;;;10.23;2.53;;;;;;;12.99;76.12;100839.91;4760801;29;20167;-88
2022/11/07 07:53:21;;;;;;;10.27;1.90;;;;;;;12.99;75.84;100847.88;4766551;30;20030;-88
2022/11/07 07:55:47;;;;;;;5.97;1.88;;;;;;;12.95;75.90;100861.38;4758085;30;20035;-89
2022/11/07 07:58:13;;;;;;;6.25;2.05;;;;;;;13.08;75.81;100854.53;4772490;30;20058;-88
2022/11/07 08:00:38;;;;;;;9.77;2.45;;;;;;;13.16;75.95;100852.34;4766888;30;20153;-88
2022/11/07 08:03:11;;;;;;;8.73;2.03;;;;;;;13.24;75.93;100836.94;4784574;30;20058;-87
2022/11/07 08:05:37;;;;;;;15.52;2.78;;;;;;;13.76;74.58;100859.91;4777046;29;20410;-88
2022/11/07 08:08:05;;;;;;;7.32;2.08;;;;;;;14.25;72.41;100867.88;4762672;30;20027;-88
2022/11/07 08:10:30;;;;;;;9.75;2.17;;;;;;;14.55;71.32;100854.72;4774519;29;20557;-88
2022/11/07 08:12:56;;;;;;;11.68;1.98;;;;;;;14.56;71.41;100847.59;4780543;30;20118;-88
2022/11/07 08:15:21;;;;;;;10.73;1.90;;;;;;;14.56;70.96;100843.13;4760998;30;20031;-87
2022/11/07 08:17:47;;;;;;;8.32;1.60;;;;;;;14.58;70.88;100857.19;4779090;30;20035;-88
2022/11/07 08:20:14;;;;;;;5.13;1.80;;;;;;;14.29;71.37;100869.44;4757416;30;20406;-88
2022/11/07 08:22:40;;;;;;;13.73;2.15;;;;;;;14.60;70.86;100854.47;4768164;30;20064;-88
2022/11/07 08:25:07;;;;;;;15.15;2.53;;;;;;;15.16;69.15;100876.97;4776879;30;20039;-87
2022/11/07 08:27:33;;;;;;;5.20;1.60;;;;;;;15.80;67.65;100865.09;4764693;30;20570;-87
2022/11/07 08:29:58;;;;;;;5.97;1.55;;;;;;;15.87;66.38;100866.44;4760527;30;20122;-86
2022/11/07 08:32:26;;;;;;;7.68;1.77;;;;;;;16.14;65.80;100877.22;4770898;30;20127;-87
2022/11/07 08:34:51;;;;;;;8.15;2.30;;;;;;;16.33;65.77;100866.25;4780727;29;20036;-86
2022/11/07 08:37:16;;;;;;;10.07;1.98;;;;;;;16.19;64.76;100876.94;4763393;30;20042;-88
2022/11/07 08:39:41;;;;;;;7.07;1.90;;;;;;;15.74;66.17;100884.16;4751668;30;20067;-87
2022/11/07 08:42:07;;;;;;;13.93;2.03;;;;;;;15.28;67.35;100877.06;4786919;29;20514;-87
2022/11/07 08:44:35;;;;;;;6.63;1.67;;;;;;;15.17;68.22;100876.84;4780193;29;20032;-87
2022/11/07 08:47:00;;;;;;;10.88;2.40;;;;;;;15.14;68.33;100877.03;4782450;30;20031;-88
2022/11/07 08:49:26;;;;;;;9.18;2.25;;;;;;;15.41;67.69;100885.19;4753502;30;20040;-87
2022/11/07 08:51:51;;;;;;;7.15;1.65;;;;;;;15.70;67.11;100891.47;4787512;30;20481;-87
2022/11/07 08:54:16;;;;;;;10.35;1.85;;;;;;;15.41;67.40;100895.84;4771147;30;20053;-88
2022/11/07 08:56:41;;;;;;;6.60;2.05;;;;;;;15.30;68.95;100901.81;4775896;30;20039;-87
2022/11/07 08:59:08;;;;;;;7.57;2.00;;;;;;;15.20;68.21;100887.34;4780076;29;20150;-88
2022/11/07 09:01:34;;;;;;;12.45;2.30;;;;;;;15.44;68.36;100911.66;4769142;30;20027;-88
2022/11/07 09:03:59;;;;;;;7.68;1.80;;;;;;;15.31;68.56;100902.69;4771402;30;20393;-87
2022/11/07 09:06:24;;;;;;;11.57;2.10;;;;;;;15.03;69.74;100916.75;4771859;30;20043;-87
2022/11/07 09:08:50;;;;;;;12.35;2.30;;;;;;;14.73;69.56;100917.53;4780068;30;20417;-87
2022/11/07 09:11:17;;;;;;;7.75;1.90;;;;;;;14.61;71.12;100920.88;4782406;30;20035;-88
2022/11/07 09:13:43;;;;;;;10.20;1.80;;;;;;;14.44;71.80;100908.47;4764176;30;20067;-87
2022/11/07 09:16:09;;;;;;;8.77;1.92;;;;;;;14.42;71.58;100921.00;4765572;30;20420;-87
2022/11/07 09:18:34;;;;;;;11.43;2.67;;;;;;;14.32;72.14;100919.81;4760374;30;20484;-88
2022/11/07 09:20:59;;;;;;;9.25;2.53;;;;;;;14.30;72.13;100919.00;4774414;29;20636;-88
2022/11/07 09:23:26;;;;;;;7.72;2.05;;;;;;;14.30;72.68;100916.34;4782711;29;20023;-88
2022/11/07 09:25:51;;;;;;;9.85;2.40;;;;;;;14.42;71.97;100923.66;4793495;29;20075;-88
2022/11/07 09:28:17;;;;;;;8.27;2.00;;;;;;;14.45;72.07;100925.28;4782103;30;20561;-88
2022/11/07 09:30:42;;;;;;;12.60;2.53;;;;;;;14.33;72.59;100931.31;4782742;29;20560;-87
2022/11/07 09:33:07;;;;;;;7.07;3.10;;;;;;;14.31;72.57;100934.03;4805251;29;20106;-88
2022/11/07 09:35:33;;;;;;;5.72;1.95;;;;;;;14.38;72.29;100938.09;4787838;29;20046;-88
2022/11/07 09:37:58;;;;;;;9.30;2.30;;;;;;;14.35;72.71;100926.75;4763122;30;20031;-87
2022/11/07 09:40:33;;;;;;;11.60;2.15;;;;;;;14.32;72.73;100943.75;4789280;29;20031;-88
2022/11/07 09:43:27;;;;;;;12.85;2.97;;;;;;;14.38;72.40;100930.09;4795990;29;20391;-88
2022/11/07 09:46:10;;;;;;;8.05;2.38;;;;;;;14.33;72.63;100936.63;4776560;29;20031;-88
2022/11/07 09:48:52;;;;;;;8.57;2.33;;;;;;;14.39;72.42;100934.47;4790644;29;20247;-87
2022/11/07 09:51:28;;;;;;;11.23;2.45;;;;;;;14.42;72.44;100939.63;4796843;29;20096;-87
2022/11/07 09:53:59;;;;;;;6.40;1.98;;;;;;;14.64;72.25;100933.16;4776302;29;20056;-88
2022/11/07 09:56:28;;;;;;;7.47;2.33;;;;;;;14.92;71.56;100946.66;4793089;29;20439;-88
2022/11/07 09:58:56;;;;;;;11.10;2.20;;;;;;;14.96;70.16;100953.50;4775191;29;20066;-87
2022/11/07 10:01:30;;;;;;;10.35;2.28;;;;;;;14.89;71.00;100949.47;4799505;29;20033;-87
2022/11/07 10:03:57;;;;;;;9.60;2.83;;;;;;;14.87;70.52;100940.69;4788197;29;20031;-88
2022/11/07 10:06:25;;;;;;;8.75;1.98;;;;;;;15.01;70.75;100948.78;4792955;29;20096;-88
2022/11/07 10:09:18;;;;;;;6.63;2.22;;;;;;;15.25;70.25;100946.53;4796355;29;20154;-87
2022/11/07 10:11:46;;;;;;;;;;;;;;;15.63;69.36;100946.06;4804240;29;20038;-88
2022/11/07 10:14:30;;;;;;;7.30;1.88;;;;;;;15.57;69.23;100949.97;4798690;29;19947;-88
2022/11/07 10:16:55;;;;;;;10.95;2.20;;;;;;;15.35;68.96;100946.84;4784271;29;20042;-88
2022/11/07 10:19:45;;;;;;;15.50;2.63;;;;;;;15.08;69.55;100943.97;4775921;29;20560;-87
2022/11/07 10:22:35;;;;;;;6.03;1.95;;;;;;;15.09;70.46;100960.78;4780901;29;20778;-87
2022/11/07 10:25:06;;;;;;;12.80;1.98;;;;;;;15.02;70.66;100960.31;4767136;29;20077;-87
2022/11/07 10:27:34;;;;;;;5.70;2.08;;;;;;;15.02;70.19;100968.28;4792438;29;20041;-87
2022/11/07 10:30:00;;;;;;;9.85;2.00;;;;;;;15.04;70.09;100945.94;4795041;29;20039;-88
2022/11/07 10:32:40;;;;;;;9.75;2.60;;;;;;;15.06;70.32;100959.16;4782865;29;20129;-88
2022/11/07 10:35:17;;;;;;;8.88;2.15;;;;;;;15.22;69.64;100957.34;4794213;29;20035;-88
2022/11/07 10:37:42;;;;;;;12.73;2.30;;;;;;;15.36;68.91;100953.88;4792522;29;20481;-87
2022/11/07 10:40:15;;;;;;;14.15;2.80;;;;;;;15.40;69.34;100959.91;4780314;29;20069;-88
2022/11/07 10:42:43;;;;;;;9.98;2.13;;;;;;;15.50;68.75;100959.25;4776495;29;20465;-87
2022/11/07 10:45:16;;;;;;;8.60;2.10;;;;;;;15.56;68.57;100966.03;4781868;29;20034;-87
2022/11/07 10:47:42;;;;;;;7.65;2.00;;;;;;;15.70;67.68;100973.25;4776800;29;20491;-87
2022/11/07 10:50:19;;;;;;;10.52;2.60;;;;;;;15.69;68.25;100969.72;4797863;29;20442;-87
2022/11/07 10:52:57;;;;;;;7.32;1.85;;;;;;;15.63;67.92;100983.38;4794513;29;20066;-88
2022/11/07 10:55:25;;;;;;;10.38;2.40;;;;;;;17.24;64.15;100965.38;4774843;29;20037;-87
2022/11/07 10:57:55;;;;;;;10.07;2.17;;;;;;;17.69;61.69;100969.47;4792960;29;20096;-88
2022/11/07 11:00:23;;;;;;;7.97;2.20;;;;;;;16.73;62.06;100981.16;4802170;29;20037;-87
2022/11/07 11:02:50;;;;;;;10.32;2.72;;;;;;;16.41;64.43;100969.78;4797923;29;20046;-88
2022/11/07 11:05:41;;;;;;;6.28;2.13;;;;;;;16.26;64.91;100979.63;4803339;29;20388;-89
2022/11/07 11:08:22;;;;;;;10.27;2.00;;;;;;;16.08;66.04;100966.44;4775265;29;20483;-89
2022/11/07 11:10:48;;;;;;;7.50;2.00;;;;;;;15.97;66.53;100984.06;4792845;29;20453;-90
2022/11/07 11:13:31;;;;;;;6.97;1.73;;;;;;;15.87;66.11;100978.44;4800644;29;20031;-88
2022/11/07 11:15:58;;;;;;;12.77;2.30;;;;;;;15.73;66.30;100971.25;4787143;29;20039;-89
2022/11/07 11:18:24;;;;;;;12.02;2.05;;;;;;;15.65;66.97;100978.84;4796949;29;20118;-88
2022/11/07 11:20:55;;;;;;;5.57;1.73;;;;;;;15.64;67.23;100960.28;4781194;29;20468;-88
2022/11/07 11:23:24;;;;;;;14.15;2.10;;;;;;;15.63;67.26;100956.72;4776711;29;20093;-88
2022/11/07 11:25:56;;;;;;;12.40;2.38;;;;;;;15.71;66.59;100961.63;4789767;29;20027;-89
2022/11/07 11:28:41;;;;;;;6.55;2.05;;;;;;;15.73;66.83;100959.75;4793434;29;20061;-88
2022/11/07 11:31:23;;;;;;;9.93;2.15;;;;;;;15.77;65.96;100956.81;4798646;29;20035;-89
2022/11/07 11:34:13;;;;;;;12.88;2.70;;;;;;;15.93;65.80;100970.06;4802631;29;20031;-88
2022/11/07 11:36:46;;;;;;;6.30;1.67;;;;;;;16.08;65.38;100961.13;4794248;29;20031;-89